createdAt,value
2017-12-08T00:02:15.480Z,9.70
2017-12-08T00:04:44.341Z,12.37
2017-12-08T00:07:13.117Z,10.20
2017-12-08T00:09:42.770Z,11.40
2017-12-08T00:12:11.660Z,10.90
2017-12-08T00:14:41.575Z,10.73
2017-12-08T00:17:11.456Z,10.30
2017-12-08T00:19:41.403Z,12.10
2017-12-08T00:22:10.089Z,11.03
2017-12-08T00:24:39.750Z,10.07
2017-12-08T00:27:08.495Z,11.60
2017-12-08T00:29:37.064Z,10.70
2017-12-08T00:32:05.859Z,13.30
2017-12-08T00:34:34.552Z,13.07
2017-12-08T00:37:03.231Z,12.93
2017-12-08T00:39:32.123Z,13.43
2017-12-08T00:42:01.842Z,11.90
2017-12-08T00:44:30.622Z,12.40
2017-12-08T00:46:59.309Z,13.83
2017-12-08T00:49:27.998Z,13.80
2017-12-08T00:51:56.682Z,12.40
2017-12-08T00:54:25.367Z,11.40
2017-12-08T00:56:54.052Z,12.07
2017-12-08T00:59:23.559Z,10.50
2017-12-08T01:01:52.243Z,11.43
2017-12-08T01:04:20.930Z,11.53
2017-12-08T01:06:50.435Z,11.23
2017-12-08T01:09:19.124Z,10.60
2017-12-08T01:11:48.012Z,10.30
2017-12-08T01:14:16.699Z,11.70
2017-12-08T01:16:45.598Z,12.20
2017-12-08T01:19:14.587Z,11.37
2017-12-08T01:21:44.256Z,11.13
2017-12-08T01:24:12.980Z,11.27
2017-12-08T01:26:41.774Z,10.43
2017-12-08T01:29:10.558Z,10.60
2017-12-08T01:31:39.246Z,11.07
2017-12-08T01:34:08.134Z,11.13
2017-12-08T01:36:37.639Z,10.77
2017-12-08T01:39:06.532Z,10.10
2017-12-08T01:41:35.423Z,9.20
2017-12-08T01:44:04.120Z,9.00
2017-12-08T01:46:32.999Z,10.00
2017-12-08T01:49:01.698Z,10.40
2017-12-08T01:51:30.577Z,8.90
2017-12-08T01:53:59.470Z,10.80
2017-12-08T01:56:28.262Z,10.90
2017-12-08T01:58:56.950Z,9.00
2017-12-08T02:01:25.630Z,11.10
2017-12-08T02:03:54.424Z,9.70
2017-12-08T02:06:24.070Z,11.03
2017-12-08T02:08:53.019Z,10.70
2017-12-08T02:11:22.726Z,10.50
2017-12-08T02:13:51.604Z,10.43
2017-12-08T02:16:20.516Z,11.10
2017-12-08T02:18:49.401Z,12.10
2017-12-08T02:21:18.293Z,9.03
2017-12-08T02:23:47.735Z,9.77
2017-12-08T02:26:16.494Z,10.00
2017-12-08T02:28:45.280Z,9.90
2017-12-08T02:31:14.165Z,11.50
2017-12-08T02:33:43.052Z,9.13
2017-12-08T02:36:11.946Z,10.03
2017-12-08T02:38:40.839Z,10.30
2017-12-08T02:41:09.829Z,11.33
2017-12-08T02:43:38.619Z,10.03
2017-12-08T02:46:07.357Z,10.77
2017-12-08T02:48:36.094Z,11.30
2017-12-08T02:51:04.777Z,12.20
2017-12-08T02:53:34.593Z,12.20
2017-12-08T02:56:03.290Z,11.87
2017-12-08T02:58:32.169Z,12.50
2017-12-08T03:01:01.058Z,11.80
2017-12-08T03:03:29.949Z,12.13
2017-12-08T03:05:58.843Z,13.00
2017-12-08T03:08:28.552Z,12.50
2017-12-08T03:10:57.339Z,13.83
2017-12-08T03:13:26.134Z,13.57
2017-12-08T03:15:55.021Z,13.50
2017-12-08T03:18:23.706Z,12.83
2017-12-08T03:20:52.700Z,15.20
2017-12-08T03:23:21.387Z,16.73
2017-12-08T03:25:50.276Z,13.90
2017-12-08T03:28:18.971Z,13.53
2017-12-08T03:30:47.797Z,14.13
2017-12-08T03:33:16.892Z,15.27
2017-12-08T03:35:45.693Z,15.17
2017-12-08T03:38:15.469Z,16.17
2017-12-08T03:40:44.447Z,15.10
2017-12-08T03:43:13.338Z,14.33
2017-12-08T03:45:42.234Z,15.30
2017-12-08T03:48:11.934Z,15.63
2017-12-08T03:50:40.624Z,14.70
2017-12-08T03:53:09.514Z,16.07
2017-12-08T03:55:38.405Z,15.37
2017-12-08T03:58:07.296Z,15.63
2017-12-08T04:00:36.200Z,14.27
2017-12-08T04:03:05.074Z,16.60
2017-12-08T04:05:33.958Z,15.60
2017-12-08T04:08:02.859Z,13.03
2017-12-08T04:10:31.618Z,14.03
2017-12-08T04:13:00.434Z,13.80
2017-12-08T04:15:29.271Z,13.43
2017-12-08T04:17:58.162Z,14.23
2017-12-08T04:20:26.908Z,15.37
2017-12-08T04:22:55.792Z,15.60
2017-12-08T04:25:24.553Z,15.30
2017-12-08T04:27:53.373Z,14.97
2017-12-08T04:30:22.270Z,15.90
2017-12-08T04:32:51.052Z,15.23
2017-12-08T04:35:19.942Z,14.87
2017-12-08T04:37:49.043Z,14.67
2017-12-08T04:40:17.722Z,14.90
2017-12-08T04:42:46.418Z,15.20
2017-12-08T04:45:15.300Z,15.23
2017-12-08T04:47:45.021Z,16.03
2017-12-08T04:50:13.906Z,16.10
2017-12-08T04:52:42.798Z,16.17
2017-12-08T04:55:12.508Z,17.30
2017-12-08T04:57:41.598Z,16.60
2017-12-08T05:00:10.734Z,17.63
2017-12-08T05:02:40.405Z,18.90
2017-12-08T05:05:09.088Z,18.53
2017-12-08T05:07:37.980Z,19.23
2017-12-08T05:10:07.083Z,20.23
2017-12-08T05:12:35.938Z,19.07
2017-12-08T05:15:04.960Z,20.60
2017-12-08T05:17:33.728Z,19.53
2017-12-08T05:20:02.687Z,18.20
2017-12-08T05:22:32.666Z,20.63
2017-12-08T05:25:01.754Z,20.10
2017-12-08T05:27:30.651Z,20.37
2017-12-08T05:29:59.541Z,18.47
2017-12-08T05:32:28.437Z,19.70
2017-12-08T05:34:58.038Z,20.27
2017-12-08T05:37:26.988Z,20.00
2017-12-08T05:39:56.430Z,21.30
2017-12-08T05:42:25.326Z,20.53
2017-12-08T05:44:54.419Z,22.00
2017-12-08T05:47:24.026Z,22.03
2017-12-08T05:49:52.718Z,21.17
2017-12-08T05:52:21.611Z,21.70
2017-12-08T05:54:50.500Z,21.57
2017-12-08T05:57:19.535Z,21.47
2017-12-08T05:59:48.493Z,22.70
2017-12-08T06:02:17.370Z,23.80
2017-12-08T06:04:46.213Z,23.80
2017-12-08T06:07:14.949Z,23.10
2017-12-08T06:09:43.838Z,24.47
2017-12-08T06:12:12.532Z,24.83
2017-12-08T06:14:41.315Z,24.27
2017-12-08T06:17:10.003Z,25.07
2017-12-08T06:19:38.895Z,25.70
2017-12-08T06:22:07.781Z,25.40
2017-12-08T06:24:36.507Z,26.50
2017-12-08T06:27:05.256Z,27.47
2017-12-08T06:29:34.148Z,27.53
2017-12-08T06:32:03.040Z,25.63
2017-12-08T06:34:31.736Z,25.10
2017-12-08T06:37:02.869Z,26.10
2017-12-08T06:39:31.558Z,25.70
2017-12-08T06:42:00.247Z,25.67
2017-12-08T06:44:28.927Z,26.10
2017-12-08T06:46:57.715Z,25.70
2017-12-08T06:49:26.610Z,26.00
2017-12-08T06:51:55.300Z,26.30
2017-12-08T06:54:24.083Z,26.73
2017-12-08T06:56:52.768Z,26.10
2017-12-08T06:59:21.562Z,28.20
2017-12-08T07:01:50.242Z,25.10
2017-12-08T07:04:19.135Z,24.77
2017-12-08T07:06:47.819Z,26.17
2017-12-08T07:09:16.610Z,26.10
2017-12-08T07:11:45.500Z,24.53
2017-12-08T07:14:15.211Z,26.97
2017-12-08T07:16:43.998Z,26.93
2017-12-08T07:19:12.686Z,26.73
2017-12-08T07:21:41.578Z,26.87
2017-12-08T07:24:10.467Z,27.57
2017-12-08T07:26:40.187Z,26.60
2017-12-08T07:29:09.071Z,25.57
2017-12-08T07:31:37.857Z,26.73
2017-12-08T07:34:06.645Z,27.10
2017-12-08T07:36:35.538Z,24.37
2017-12-08T07:39:04.427Z,24.97
2017-12-08T07:41:33.319Z,24.23
2017-12-08T07:44:02.005Z,23.83
2017-12-08T07:46:30.690Z,25.33
2017-12-08T07:48:59.375Z,27.23
2017-12-08T07:51:28.267Z,26.57
2017-12-08T07:53:56.953Z,25.90
2017-12-08T07:56:25.640Z,26.60
2017-12-08T07:58:54.505Z,26.83
2017-12-08T08:01:23.322Z,27.60
2017-12-08T08:03:52.419Z,25.70
2017-12-08T08:06:21.051Z,26.70
2017-12-08T08:08:51.223Z,27.97
2017-12-08T08:11:19.911Z,24.90
2017-12-08T08:13:48.801Z,25.80
2017-12-08T08:16:17.690Z,25.17
2017-12-08T08:18:46.581Z,26.13
2017-12-08T08:21:15.473Z,25.60
2017-12-08T08:23:44.302Z,23.70
2017-12-08T08:26:13.052Z,25.30
2017-12-08T08:28:41.839Z,25.60
2017-12-08T08:31:10.463Z,24.40
2017-12-08T08:33:39.160Z,24.17
2017-12-08T08:36:08.041Z,23.00
2017-12-08T08:38:36.788Z,23.63
2017-12-08T08:41:05.681Z,22.70
2017-12-08T08:43:34.678Z,23.13
2017-12-08T08:46:03.512Z,23.73
2017-12-08T08:48:32.249Z,24.60
2017-12-08T08:51:01.148Z,22.20
2017-12-08T08:53:29.835Z,24.10
2017-12-08T08:55:58.513Z,22.90
2017-12-08T08:58:27.405Z,23.57
2017-12-08T09:00:56.091Z,23.23
2017-12-08T09:03:24.880Z,23.97
2017-12-08T09:05:53.980Z,21.63
2017-12-08T09:08:22.863Z,23.17
2017-12-08T09:10:51.651Z,23.00
2017-12-08T09:13:20.545Z,24.30
2017-12-08T09:15:49.387Z,23.10
2017-12-08T09:18:18.123Z,25.20
2017-12-08T09:23:44.577Z,24.53
2017-12-08T09:26:13.366Z,22.37
2017-12-08T09:28:42.255Z,23.47
2017-12-08T09:31:12.067Z,23.20
2017-12-08T09:33:40.970Z,23.07
2017-12-08T09:36:09.848Z,23.27
2017-12-08T09:38:38.742Z,23.83
2017-12-08T09:41:07.632Z,23.70
2017-12-08T09:43:36.316Z,24.20
2017-12-08T09:46:05.207Z,23.63
2017-12-08T09:48:34.098Z,23.23
2017-12-08T09:51:02.989Z,23.43
2017-12-08T09:53:31.882Z,26.40
2017-12-08T09:56:00.771Z,25.60
2017-12-08T09:58:29.413Z,24.37
2017-12-08T10:00:58.349Z,23.40
2017-12-08T10:03:27.047Z,26.67
2017-12-08T10:05:55.889Z,24.73
2017-12-08T10:08:24.822Z,24.83
2017-12-08T10:10:53.605Z,23.47
2017-12-08T10:13:22.502Z,25.27
2017-12-08T10:15:51.329Z,22.63
2017-12-08T10:18:20.073Z,24.17
2017-12-08T10:20:48.967Z,23.70
2017-12-08T10:23:17.706Z,23.63
2017-12-08T10:25:46.441Z,22.20
2017-12-08T10:28:15.332Z,21.97
2017-12-08T10:30:44.220Z,21.80
2017-12-08T10:33:13.012Z,22.90
2017-12-08T10:35:41.874Z,22.70
2017-12-08T10:38:10.791Z,21.37
2017-12-08T10:46:34.912Z,21.77
2017-12-08T10:49:03.598Z,22.40
2017-12-08T10:51:32.489Z,21.70
2017-12-08T10:54:01.380Z,26.60
2017-12-08T10:56:30.168Z,22.03
2017-12-08T10:58:59.062Z,23.23
2017-12-08T11:01:27.891Z,22.63
2017-12-08T11:03:56.586Z,23.33
2017-12-08T11:06:25.276Z,22.97
2017-12-08T11:08:54.024Z,23.73
2017-12-08T11:11:23.528Z,22.90
2017-12-08T11:13:52.405Z,20.20
2017-12-08T11:16:21.295Z,21.30
2017-12-08T11:18:50.131Z,19.77
2017-12-08T11:21:19.106Z,20.03
2017-12-08T11:23:48.071Z,21.90
2017-12-08T11:26:16.863Z,22.07
2017-12-08T11:28:45.752Z,22.40
2017-12-08T11:31:14.648Z,24.10
2017-12-08T11:33:43.536Z,22.43
2017-12-08T11:36:12.424Z,23.10
2017-12-08T11:38:41.320Z,22.73
2017-12-08T11:41:10.006Z,24.97
2017-12-08T11:43:38.893Z,23.87
2017-12-08T11:46:07.786Z,25.20
2017-12-08T11:48:36.675Z,23.03
2017-12-08T11:51:05.572Z,22.60
2017-12-08T11:53:34.457Z,24.00
2017-12-08T11:56:03.581Z,25.13
2017-12-08T11:58:32.442Z,24.63
2017-12-08T12:01:01.128Z,23.67
2017-12-08T12:03:29.919Z,22.20
2017-12-08T12:05:58.608Z,23.93
2017-12-08T12:08:27.495Z,26.03
2017-12-08T12:10:56.182Z,24.10
2017-12-08T12:13:24.867Z,23.63
2017-12-08T12:15:53.757Z,24.90
2017-12-08T12:18:22.444Z,22.83
2017-12-08T12:20:51.342Z,25.47
2017-12-08T12:23:20.226Z,21.63
2017-12-08T12:25:48.915Z,22.00
2017-12-08T12:28:17.905Z,20.87
2017-12-08T12:30:46.797Z,19.20
2017-12-08T12:33:15.893Z,20.93
2017-12-08T12:35:44.783Z,21.90
2017-12-08T12:38:13.826Z,17.70
2017-12-08T12:40:42.773Z,20.17
2017-12-08T12:43:11.559Z,20.83
2017-12-08T12:45:40.964Z,23.00
2017-12-08T12:48:09.853Z,25.07
2017-12-08T12:50:38.847Z,25.53
2017-12-08T12:53:07.754Z,23.00
2017-12-08T12:55:37.244Z,22.00
2017-12-08T12:58:06.136Z,20.17
2017-12-08T13:00:34.926Z,22.10
2017-12-08T13:03:03.818Z,22.03
2017-12-08T13:05:32.510Z,28.33
2017-12-08T13:10:36.244Z,22.93
2017-12-08T13:13:05.164Z,24.07
2017-12-08T13:15:33.798Z,22.57
2017-12-08T13:18:02.487Z,25.13
2017-12-08T13:20:31.170Z,22.93
2017-12-08T13:23:00.066Z,24.70
2017-12-08T13:25:28.966Z,25.40
2017-12-08T13:27:57.845Z,21.50
2017-12-08T13:30:26.531Z,22.80
2017-12-08T13:32:55.319Z,21.00
2017-12-08T13:35:24.009Z,21.33
2017-12-08T13:37:52.635Z,21.90
2017-12-08T13:40:22.051Z,21.13
2017-12-08T13:42:51.812Z,21.80
2017-12-08T13:45:20.884Z,23.03
2017-12-08T13:47:49.536Z,22.57
2017-12-08T13:50:18.276Z,20.30
2017-12-08T13:52:46.962Z,22.53
2017-12-08T13:55:27.669Z,19.73
2017-12-08T13:57:56.516Z,22.80
2017-12-08T14:00:25.211Z,20.23
2017-12-08T14:02:55.099Z,19.87
2017-12-08T14:05:24.017Z,21.90
2017-12-08T14:07:52.964Z,18.70
2017-12-08T14:10:22.622Z,19.90
2017-12-08T14:12:51.508Z,17.30
2017-12-08T14:15:20.397Z,20.80
2017-12-08T14:17:50.111Z,20.10
2017-12-08T14:20:18.895Z,26.13
2017-12-08T14:22:47.513Z,21.57
2017-12-08T14:25:16.474Z,19.23
2017-12-08T14:27:45.578Z,21.60
2017-12-08T14:30:14.459Z,23.00
2017-12-08T14:32:43.356Z,24.30
2017-12-08T14:35:12.037Z,24.43
2017-12-08T14:37:41.142Z,22.50
2017-12-08T14:40:10.172Z,20.10
2017-12-08T14:42:39.057Z,21.20
2017-12-08T14:45:08.727Z,19.67
2017-12-08T14:47:37.511Z,19.10
2017-12-08T14:50:06.315Z,19.63
2017-12-08T14:52:35.193Z,22.00
2017-12-08T14:55:03.880Z,21.03
2017-12-08T14:57:32.604Z,21.60
2017-12-08T15:00:01.373Z,19.13
2017-12-08T15:02:30.244Z,17.67
2017-12-08T15:04:59.135Z,19.83
2017-12-08T15:07:28.031Z,17.53
2017-12-08T15:09:56.920Z,20.40
2017-12-08T15:12:25.602Z,18.37
2017-12-08T15:14:54.493Z,29.97
2017-12-08T15:17:23.183Z,21.80
2017-12-08T15:19:52.073Z,18.03
2017-12-08T15:22:20.963Z,19.77
2017-12-08T15:24:49.873Z,18.80
2017-12-08T15:27:19.579Z,20.90
2017-12-08T15:29:49.223Z,18.93
2017-12-08T15:32:19.394Z,24.50
2017-12-08T15:34:48.081Z,19.63
2017-12-08T15:37:16.972Z,20.73
2017-12-08T15:39:46.683Z,21.57
2017-12-08T15:42:15.565Z,17.60
2017-12-08T15:44:45.473Z,16.57
2017-12-08T15:47:14.351Z,15.40
2017-12-08T15:49:43.371Z,14.77
2017-12-08T15:52:12.784Z,15.30
2017-12-08T15:54:41.672Z,14.80
2017-12-08T15:57:11.170Z,15.70
2017-12-08T15:59:40.392Z,15.13
2017-12-08T16:02:10.797Z,15.07
2017-12-08T16:04:39.696Z,17.43
2017-12-08T16:07:08.751Z,13.23
2017-12-08T16:09:37.766Z,14.87
2017-12-08T16:12:06.523Z,13.40
2017-12-08T16:14:35.622Z,14.17
2017-12-08T16:17:04.775Z,13.90
2017-12-08T16:19:34.808Z,13.87
2017-12-08T16:22:04.176Z,15.80
2017-12-08T16:24:34.160Z,14.07
2017-12-08T16:27:03.788Z,13.17
2017-12-08T16:29:32.748Z,15.43
2017-12-08T16:32:02.366Z,13.80
2017-12-08T16:34:31.501Z,14.40
2017-12-08T16:37:00.564Z,14.40
2017-12-08T16:39:30.311Z,15.23
2017-12-08T16:41:59.812Z,14.70
2017-12-08T16:44:28.703Z,13.47
2017-12-08T16:46:57.492Z,14.27
2017-12-08T16:49:26.394Z,13.90
2017-12-08T16:51:55.276Z,13.70
2017-12-08T16:54:23.959Z,13.20
2017-12-08T16:56:52.649Z,15.70
2017-12-08T16:59:21.563Z,15.13
2017-12-08T17:01:50.429Z,15.67
2017-12-08T17:04:19.113Z,16.73
2017-12-08T17:06:48.003Z,14.90
2017-12-08T17:09:16.910Z,15.57
2017-12-08T17:11:46.357Z,15.30
2017-12-08T17:14:15.087Z,15.10
2017-12-08T17:16:44.151Z,14.50
2017-12-08T17:19:12.979Z,14.50
2017-12-08T17:21:41.862Z,15.30
2017-12-08T17:24:10.769Z,14.87
2017-12-08T17:26:39.579Z,17.77
2017-12-08T17:29:08.544Z,17.20
2017-12-08T17:31:39.067Z,16.13
2017-12-08T17:34:08.064Z,16.90
2017-12-08T17:36:36.849Z,17.70
2017-12-08T17:39:05.748Z,24.87
2017-12-08T17:41:34.607Z,18.93
2017-12-08T17:44:03.486Z,17.50
2017-12-08T17:46:32.323Z,17.30
2017-12-08T17:49:01.172Z,16.30
2017-12-08T17:51:30.090Z,15.47
2017-12-08T17:53:59.599Z,13.80
2017-12-08T17:56:28.384Z,16.27
2017-12-08T17:58:58.401Z,16.30
2017-12-08T18:01:27.366Z,16.97
2017-12-08T18:03:56.382Z,16.80
2017-12-08T18:06:25.484Z,19.43
2017-12-08T18:08:54.274Z,18.40
2017-12-08T18:11:22.960Z,18.33
2017-12-08T18:13:51.597Z,18.93
2017-12-08T18:16:21.211Z,19.33
2017-12-08T18:18:50.153Z,17.67
2017-12-08T18:21:19.302Z,18.17
2017-12-08T18:23:48.130Z,17.07
2017-12-08T18:26:16.816Z,16.50
2017-12-08T18:28:45.707Z,17.10
2017-12-08T18:31:14.397Z,19.87
2017-12-08T18:33:43.285Z,18.00
2017-12-08T18:36:12.178Z,17.40
2017-12-08T18:38:41.005Z,16.53
2017-12-08T18:41:09.753Z,15.07
2017-12-08T18:43:39.063Z,19.30
2017-12-08T18:46:10.812Z,16.40
2017-12-08T18:48:39.714Z,18.10
2017-12-08T18:51:08.395Z,15.73
2017-12-08T18:53:37.281Z,14.20
2017-12-08T18:56:06.376Z,16.37
2017-12-08T18:58:35.266Z,15.13
2017-12-08T19:01:04.157Z,14.60
2017-12-08T19:03:33.048Z,15.07
2017-12-08T19:06:01.975Z,14.07
2017-12-08T19:08:30.832Z,15.33
2017-12-08T19:10:59.722Z,13.80
2017-12-08T19:13:28.420Z,15.47
2017-12-08T19:15:57.298Z,13.53
2017-12-08T19:18:26.196Z,14.43
2017-12-08T19:20:55.085Z,17.33
2017-12-08T19:23:24.383Z,13.27
2017-12-08T19:25:54.079Z,14.77
2017-12-08T19:28:23.135Z,13.73
2017-12-08T19:30:51.880Z,13.30
2017-12-08T19:33:20.772Z,12.60
2017-12-08T19:35:49.605Z,14.47
2017-12-08T19:38:18.574Z,14.23
2017-12-08T19:40:48.259Z,14.93
2017-12-08T19:43:16.945Z,19.10
2017-12-08T19:45:45.847Z,15.93
2017-12-08T19:48:15.548Z,15.50
2017-12-08T19:50:44.172Z,14.93
2017-12-08T19:53:13.123Z,18.47
2017-12-08T19:55:42.021Z,14.77
2017-12-08T19:58:11.519Z,16.70
2017-12-08T20:00:40.411Z,16.67
2017-12-08T20:03:09.405Z,15.70
2017-12-08T20:05:38.193Z,15.07
2017-12-08T20:08:06.876Z,16.00
2017-12-08T20:10:35.667Z,16.80
2017-12-08T20:13:04.559Z,16.17
2017-12-08T20:15:33.856Z,17.37
2017-12-08T20:18:02.747Z,17.07
2017-12-08T20:20:31.639Z,16.87
2017-12-08T20:23:01.352Z,17.57
2017-12-08T20:25:30.241Z,17.20
2017-12-08T20:27:58.863Z,16.83
2017-12-08T20:30:27.613Z,16.20
2017-12-08T20:32:56.504Z,26.77
2017-12-08T20:35:25.337Z,14.90
2017-12-08T20:37:54.081Z,14.23
2017-12-08T20:40:22.973Z,14.93
2017-12-08T20:42:51.665Z,15.40
2017-12-08T20:45:20.551Z,15.93
2017-12-08T20:47:49.448Z,15.80
2017-12-08T20:50:18.331Z,15.23
2017-12-08T20:52:47.239Z,13.93
2017-12-08T20:55:16.114Z,15.53
2017-12-08T20:57:45.016Z,14.83
2017-12-08T21:00:13.948Z,14.87
2017-12-08T21:02:43.001Z,14.03
2017-12-08T21:05:11.880Z,16.63
2017-12-08T21:07:41.397Z,15.70
2017-12-08T21:10:11.052Z,12.70
2017-12-08T21:12:39.988Z,15.73
2017-12-08T21:15:08.679Z,14.73
2017-12-08T21:17:37.566Z,13.77
2017-12-08T21:20:06.262Z,18.20
2017-12-08T21:22:35.759Z,14.23
2017-12-08T21:25:04.648Z,16.67
2017-12-08T21:27:34.155Z,16.30
2017-12-08T21:30:02.788Z,13.13
2017-12-08T21:32:31.733Z,14.07
2017-12-08T21:35:00.418Z,14.40
2017-12-08T21:37:29.307Z,12.80
2017-12-08T21:39:58.206Z,12.63
2017-12-08T21:42:27.090Z,13.53
2017-12-08T21:44:59.760Z,13.70
2017-12-08T21:47:28.558Z,16.30
2017-12-08T21:49:57.542Z,15.80
2017-12-08T21:52:26.633Z,15.90
2017-12-08T21:54:55.948Z,17.53
2017-12-08T21:57:24.822Z,19.00
2017-12-08T21:59:53.626Z,18.10
2017-12-08T22:02:22.423Z,20.20
2017-12-08T22:04:52.126Z,21.47
2017-12-08T22:07:21.843Z,19.50
2017-12-08T22:09:57.612Z,25.53
2017-12-08T22:12:26.795Z,20.10
2017-12-08T22:14:55.690Z,23.23
2017-12-08T22:17:24.576Z,23.00
2017-12-08T22:19:53.680Z,20.30
2017-12-08T22:22:22.765Z,21.63
2017-12-08T22:24:51.833Z,24.50
2017-12-08T22:27:20.953Z,23.67
2017-12-08T22:29:49.743Z,22.87
2017-12-08T22:32:18.947Z,24.13
2017-12-08T22:34:49.346Z,24.80
2017-12-08T22:37:18.787Z,22.83
2017-12-08T22:39:48.479Z,24.47
2017-12-08T22:42:18.209Z,25.20
2017-12-08T22:44:47.093Z,25.10
2017-12-08T22:47:16.751Z,26.20
2017-12-08T22:49:45.893Z,26.83
2017-12-08T22:52:14.781Z,25.20
2017-12-08T22:54:43.672Z,24.40
2017-12-08T22:57:13.124Z,26.87
2017-12-08T22:59:42.068Z,26.10
2017-12-08T23:02:10.982Z,25.10
2017-12-08T23:04:39.747Z,26.30
2017-12-08T23:07:09.049Z,25.27
2017-12-08T23:09:38.039Z,25.40
2017-12-08T23:12:06.834Z,26.10
2017-12-08T23:14:35.768Z,25.77
2017-12-08T23:17:04.610Z,25.20
2017-12-08T23:19:33.306Z,24.23
2017-12-08T23:22:02.399Z,23.23
2017-12-08T23:24:32.208Z,26.20
2017-12-08T23:27:01.000Z,27.53
2017-12-08T23:29:30.572Z,26.47
2017-12-08T23:31:59.399Z,26.00
2017-12-08T23:34:28.901Z,28.10
2017-12-08T23:36:57.793Z,28.23
2017-12-08T23:39:32.622Z,26.67
2017-12-08T23:42:01.510Z,25.80
2017-12-08T23:44:31.004Z,25.03
2017-12-08T23:47:06.057Z,24.80
2017-12-08T23:49:35.570Z,24.60
2017-12-08T23:52:12.023Z,27.67
2017-12-08T23:54:41.124Z,24.37
2017-12-08T23:57:10.011Z,25.77
2017-12-08T23:59:38.902Z,26.40
